Time;durP1;ratioP1;P1;durP2;ratioP2;P2;SDS_P1;SDS_P2;PMS_P1;PMS_P2;Temp;Humidity;BMP_temperature;BMP_pressure;BME280_temperature;BME280_humidity;BME280_pressure;Samples;Min_cycle;Max_cycle;Signal;HPM_P1;HPM_P2
2023/02/07 00:00:45;;;;;;;3.40;0.93;;;20.30;35.40;;;;;;5066901;28;20148;-47
2023/02/07 00:03:13;;;;;;;6.05;1.45;;;20.30;35.60;;;;;;5066755;28;20051;-49
2023/02/07 00:05:40;;;;;;;9.07;2.17;;;20.30;35.50;;;;;;5066795;28;20467;-52
2023/02/07 00:08:08;;;;;;;2.00;1.08;;;20.30;35.60;;;;;;5066320;28;20071;-49
2023/02/07 00:10:35;;;;;;;3.58;1.33;;;20.20;35.90;;;;;;5066346;28;20064;-48
2023/02/07 00:13:02;;;;;;;6.50;1.27;;;20.20;35.80;;;;;;5066202;28;20118;-48
2023/02/07 00:15:31;;;;;;;5.28;1.63;;;20.20;35.60;;;;;;5064973;28;20049;-50
2023/02/07 00:17:58;;;;;;;4.85;1.23;;;20.20;35.30;;;;;;5066253;28;20140;-50
2023/02/07 00:20:25;;;;;;;3.08;1.20;;;20.20;35.50;;;;;;5066221;28;20040;-49
2023/02/07 00:22:54;;;;;;;5.60;2.70;;;20.10;35.70;;;;;;5059517;28;20401;-49
2023/02/07 00:25:23;;;;;;;3.75;1.42;;;20.10;35.50;;;;;;5064949;28;20056;-51
2023/02/07 00:27:50;;;;;;;4.05;1.10;;;20.10;35.80;;;;;;5066213;28;20127;-48
2023/02/07 00:30:17;;;;;;;4.13;1.10;;;20.10;35.80;;;;;;5060596;28;20069;-48
2023/02/07 00:32:46;;;;;;;2.63;0.70;;;20.10;35.70;;;;;;5065268;28;20036;-48
2023/02/07 00:35:13;;;;;;;6.80;1.00;;;20.10;35.70;;;;;;5064364;28;20140;-46
2023/02/07 00:37:40;;;;;;;3.75;1.52;;;20.10;35.70;;;;;;5064230;28;20394;-49
2023/02/07 00:40:09;;;;;;;4.97;1.65;;;20.10;35.80;;;;;;5061842;28;20884;-51
2023/02/07 00:42:37;;;;;;;6.97;1.02;;;20.00;35.60;;;;;;5065115;28;20044;-49
2023/02/07 00:45:04;;;;;;;3.83;1.48;;;20.00;35.60;;;;;;5060735;28;20048;-51
2023/02/07 00:47:32;;;;;;;7.13;2.15;;;20.00;35.70;;;;;;5057118;28;20076;-48
2023/02/07 00:50:00;;;;;;;7.97;1.98;;;20.00;35.90;;;;;;5064458;28;20068;-46
2023/02/07 00:52:27;;;;;;;2.38;0.90;;;20.00;35.90;;;;;;5066240;28;20886;-47
2023/02/07 00:54:58;;;;;;;7.05;1.80;;;20.00;36.10;;;;;;5064298;28;20044;-52
2023/02/07 00:57:25;;;;;;;4.57;1.10;;;20.00;36.00;;;;;;5063705;28;20040;-51
2023/02/07 00:59:53;;;;;;;7.10;0.57;;;20.00;35.90;;;;;;5056577;28;20162;-47
2023/02/07 01:02:22;;;;;;;2.28;0.50;;;20.00;37.60;;;;;;5043831;28;20049;-46
2023/02/07 01:04:49;;;;;;;4.05;0.98;;;20.00;38.20;;;;;;5043745;28;20045;-47
2023/02/07 01:07:19;;;;;;;2.25;0.50;;;20.00;38.60;;;;;;5079075;28;20051;-46
2023/02/07 01:09:47;;;;;;;2.67;1.40;;;20.00;38.80;;;;;;5085540;28;20604;-49
2023/02/07 01:12:16;;;;;;;1.58;0.52;;;20.00;38.90;;;;;;5071387;28;20098;-48
2023/02/07 01:14:43;;;;;;;3.72;1.13;;;19.90;38.90;;;;;;5065856;28;20112;-48
2023/02/07 01:17:11;;;;;;;4.97;0.30;;;19.90;39.00;;;;;;5066168;28;20052;-51
2023/02/07 01:19:38;;;;;;;2.55;1.55;;;19.90;39.10;;;;;;5064630;28;20048;-46
2023/02/07 01:22:05;;;;;;;6.15;0.88;;;19.90;39.10;;;;;;5065735;28;20131;-45
2023/02/07 01:24:35;;;;;;;3.05;1.60;;;19.90;39.30;;;;;;5065789;28;20048;-52
2023/02/07 01:27:04;;;;;;;2.30;0.35;;;19.90;39.40;;;;;;5066007;28;20048;-46
2023/02/07 01:29:32;;;;;;;2.45;0.60;;;19.90;39.50;;;;;;5065941;28;20090;-45
2023/02/07 01:31:59;;;;;;;3.20;0.45;;;19.90;39.60;;;;;;5066157;28;20048;-48
2023/02/07 01:34:28;;;;;;;3.15;0.90;;;19.90;39.60;;;;;;5049660;28;20473;-46
2023/02/07 01:36:57;;;;;;;4.90;0.70;;;19.90;39.90;;;;;;5044786;28;20053;-47
2023/02/07 01:39:24;;;;;;;1.25;0.65;;;19.90;39.90;;;;;;5043988;28;20052;-45
2023/02/07 01:41:53;;;;;;;2.53;0.65;;;19.80;39.90;;;;;;5054525;28;20049;-46
2023/02/07 01:45:04;;;;;;;5.53;0.70;;;19.80;40.00;;;;;;5065887;28;20052;-46
2023/02/07 01:47:35;;;;;;;3.67;0.88;;;19.80;40.00;;;;;;5065955;28;20064;-45
2023/02/07 01:50:03;;;;;;;2.92;0.82;;;19.80;40.10;;;;;;5065662;28;20056;-48
2023/02/07 01:52:35;;;;;;;4.85;0.75;;;19.70;40.20;;;;;;5065644;28;20055;-46
2023/02/07 01:55:06;;;;;;;2.08;0.47;;;19.70;40.30;;;;;;5064458;28;20048;-48
2023/02/07 01:57:34;;;;;;;1.73;0.63;;;19.70;40.40;;;;;;5065685;28;20049;-46
2023/02/07 02:00:04;;;;;;;2.08;0.60;;;19.70;40.60;;;;;;5065687;28;20072;-49
2023/02/07 02:02:42;;;;;;;1.75;1.33;;;19.70;40.80;;;;;;5065687;28;20050;-45
2023/02/07 02:05:14;;;;;;;3.85;1.27;;;19.60;40.80;;;;;;5063997;28;20580;-47
2023/02/07 02:07:44;;;;;;;1.15;0.60;;;19.60;40.90;;;;;;5064027;28;20055;-47
2023/02/07 02:10:15;;;;;;;4.13;0.80;;;19.60;41.00;;;;;;5065151;28;20040;-47
2023/02/07 02:12:59;;;;;;;2.70;0.80;;;19.60;41.10;;;;;;5063838;28;20704;-45
2023/02/07 02:15:44;;;;;;;2.65;0.50;;;19.60;41.10;;;;;;5063858;28;20052;-45
2023/02/07 02:18:28;;;;;;;3.75;0.50;;;19.50;41.80;;;;;;5063803;28;20048;-45
2023/02/07 02:21:18;;;;;;;4.07;0.80;;;19.50;41.20;;;;;;5064300;28;20118;-48
2023/02/07 02:24:07;;;;;;;3.00;1.25;;;19.50;41.20;;;;;;5044797;28;20505;-46
2023/02/07 02:26:55;;;;;;;4.03;0.82;;;19.50;41.30;;;;;;5045474;28;20045;-46
2023/02/07 02:30:05;;;;;;;2.22;0.73;;;19.40;41.20;;;;;;5053128;28;20199;-47
2023/02/07 02:33:05;;;;;;;1.95;1.10;;;19.40;41.80;;;;;;5065076;28;20052;-46
2023/02/07 02:35:43;;;;;;;1.67;0.57;;;19.40;41.40;;;;;;5047249;28;20122;-48
2023/02/07 02:38:16;;;;;;;4.30;0.55;;;19.30;41.40;;;;;;5063604;28;20107;-45
2023/02/07 02:40:52;;;;;;;3.88;0.95;;;19.30;41.40;;;;;;5065273;28;20049;-45
2023/02/07 02:43:29;;;;;;;6.78;1.45;;;19.30;41.60;;;;;;5063865;28;20080;-49
2023/02/07 02:46:02;;;;;;;1.13;0.65;;;19.30;41.70;;;;;;5063949;28;20473;-47
2023/02/07 02:48:31;;;;;;;1.30;0.50;;;19.30;41.90;;;;;;5063733;28;20045;-46
2023/02/07 02:50:59;;;;;;;1.13;0.50;;;19.20;41.90;;;;;;5064898;28;20124;-44
2023/02/07 02:53:28;;;;;;;1.90;0.47;;;19.20;42.00;;;;;;5063415;28;20051;-44
2023/02/07 02:56:19;;;;;;;2.95;1.02;;;19.20;42.00;;;;;;5063840;28;20040;-46
2023/02/07 02:59:15;;;;;;;4.53;0.88;;;19.20;42.10;;;;;;5069399;28;20040;-50
2023/02/07 03:01:55;;;;;;;1.95;1.02;;;19.20;42.10;;;;;;5087835;28;20534;-48
2023/02/07 03:04:53;;;;;;;3.97;0.47;;;19.20;42.20;;;;;;5087530;28;20055;-45
2023/02/07 03:07:41;;;;;;;2.47;1.05;;;19.10;42.10;;;;;;5086836;28;20516;-45
2023/02/07 03:10:19;;;;;;;1.00;0.50;;;19.10;42.20;;;;;;5081316;28;20041;-45
2023/02/07 03:12:55;;;;;;;10.55;0.93;;;19.10;42.90;;;;;;5048035;28;20053;-46
2023/02/07 03:15:33;;;;;;;11.80;1.40;;;19.10;42.30;;;;;;5048580;28;20045;-46
2023/02/07 03:18:09;;;;;;;9.02;1.40;;;19.10;42.40;;;;;;5047201;28;20055;-45
2023/02/07 03:20:39;;;;;;;;;;;19.10;42.50;;;;;;5068833;28;20132;-46
2023/02/07 03:23:08;;;;;;;8.07;3.80;;;19.00;42.30;;;;;;5066494;28;19968;-44
2023/02/07 03:25:38;;;;;;;16.15;1.63;;;19.00;43.20;;;;;;5066880;28;20040;-53
2023/02/07 03:28:09;;;;;;;5.72;0.88;;;19.00;42.70;;;;;;5066759;28;20127;-42
2023/02/07 03:30:39;;;;;;;10.93;2.53;;;18.90;42.70;;;;;;5067965;28;20114;-47
2023/02/07 03:33:10;;;;;;;10.93;1.65;;;19.00;42.80;;;;;;5068063;28;20051;-49
2023/02/07 03:35:46;;;;;;;13.98;2.45;;;18.90;42.70;;;;;;5068021;28;20048;-47
2023/02/07 03:38:15;;;;;;;5.47;1.15;;;19.00;42.80;;;;;;5067465;28;20045;-46
2023/02/07 03:40:45;;;;;;;9.13;1.58;;;18.90;42.70;;;;;;5068240;28;20072;-47
2023/02/07 03:43:18;;;;;;;7.22;1.15;;;18.90;42.70;;;;;;5067699;28;20097;-45
2023/02/07 03:45:45;;;;;;;6.55;1.35;;;18.90;42.70;;;;;;5067891;28;20852;-44
2023/02/07 03:48:13;;;;;;;8.55;1.48;;;18.80;42.70;;;;;;5067926;28;20044;-45
2023/02/07 03:50:43;;;;;;;4.72;0.30;;;18.90;42.90;;;;;;5067021;28;20127;-45
2023/02/07 03:53:10;;;;;;;4.10;0.52;;;18.80;42.80;;;;;;5066899;28;20512;-44
2023/02/07 03:55:40;;;;;;;5.35;0.47;;;18.80;42.90;;;;;;5067069;28;20123;-45
2023/02/07 03:58:08;;;;;;;3.92;0.93;;;18.80;42.90;;;;;;5067413;28;20480;-44
2023/02/07 04:00:36;;;;;;;6.13;0.45;;;18.80;42.90;;;;;;5049351;28;20045;-46
2023/02/07 04:03:03;;;;;;;13.50;1.15;;;18.80;42.90;;;;;;5047414;28;20126;-42
2023/02/07 04:05:31;;;;;;;6.93;1.00;;;18.80;42.80;;;;;;5046883;28;20089;-44
2023/02/07 04:08:00;;;;;;;2.03;0.57;;;18.80;42.80;;;;;;5047324;28;20044;-44
2023/02/07 04:10:29;;;;;;;5.13;0.47;;;18.80;42.80;;;;;;5047331;28;20422;-46
2023/02/07 04:12:56;;;;;;;3.40;0.68;;;18.70;42.70;;;;;;5063689;28;20197;-51
2023/02/07 04:15:23;;;;;;;3.30;0.75;;;18.70;42.60;;;;;;5067024;28;20045;-47
2023/02/07 04:17:51;;;;;;;4.07;0.88;;;18.70;42.80;;;;;;5049508;28;20049;-48
2023/02/07 04:20:18;;;;;;;4.32;0.28;;;18.70;42.80;;;;;;5046714;28;20049;-49
2023/02/07 04:22:46;;;;;;;5.70;0.60;;;18.70;42.80;;;;;;5045883;28;20533;-47
2023/02/07 04:25:14;;;;;;;3.10;1.20;;;18.70;42.80;;;;;;5047282;28;20045;-45
2023/02/07 04:27:41;;;;;;;9.40;0.52;;;18.70;42.70;;;;;;5047293;28;20068;-46
2023/02/07 04:30:11;;;;;;;9.38;0.45;;;18.70;42.80;;;;;;5061462;28;20072;-46
2023/02/07 04:32:39;;;;;;;4.07;1.13;;;18.60;42.70;;;;;;5066806;28;20580;-45
2023/02/07 04:35:11;;;;;;;2.67;0.52;;;18.70;42.70;;;;;;5067002;28;20048;-52
2023/02/07 04:37:39;;;;;;;1.67;0.63;;;18.60;42.70;;;;;;5066749;28;20173;-46
2023/02/07 04:40:07;;;;;;;1.42;0.20;;;18.60;42.80;;;;;;5066937;28;20048;-48
2023/02/07 04:42:35;;;;;;;1.63;0.43;;;18.60;42.80;;;;;;5066758;28;20048;-50
2023/02/07 04:45:04;;;;;;;2.53;0.28;;;18.60;42.90;;;;;;5067235;28;20095;-45
2023/02/07 04:47:31;;;;;;;4.13;0.47;;;18.60;42.90;;;;;;5066697;28;20056;-44
2023/02/07 04:49:58;;;;;;;4.32;0.32;;;18.60;43.00;;;;;;5066151;28;20049;-46
2023/02/07 04:52:26;;;;;;;3.03;0.68;;;18.60;43.00;;;;;;5066936;28;20143;-47
2023/02/07 04:54:53;;;;;;;1.70;0.45;;;18.50;42.90;;;;;;5066359;28;20039;-47
2023/02/07 04:57:20;;;;;;;1.55;1.17;;;18.60;43.00;;;;;;5086213;28;20044;-44
2023/02/07 04:59:49;;;;;;;2.05;0.30;;;18.60;43.00;;;;;;5087260;28;20496;-46
2023/02/07 05:02:16;;;;;;;1.15;0.30;;;18.60;43.00;;;;;;5087000;28;20150;-45
2023/02/07 05:04:45;;;;;;;1.92;0.40;;;18.50;42.90;;;;;;5086750;28;20151;-48
2023/02/07 05:07:13;;;;;;;1.65;0.40;;;18.50;43.00;;;;;;5086823;28;20040;-47
2023/02/07 05:09:40;;;;;;;4.97;0.70;;;18.50;42.90;;;;;;5086834;28;20042;-44
2023/02/07 05:12:08;;;;;;;3.90;0.68;;;18.50;42.90;;;;;;5086654;28;20044;-45
2023/02/07 05:14:35;;;;;;;1.95;0.52;;;18.50;42.90;;;;;;5086836;28;20506;-46
2023/02/07 05:17:06;;;;;;;1.27;0.30;;;18.50;42.90;;;;;;5086802;28;20043;-45
2023/02/07 05:19:33;;;;;;;4.22;0.63;;;18.50;42.90;;;;;;5085750;28;20067;-44
2023/02/07 05:22:03;;;;;;;0.60;0.50;;;18.50;42.90;;;;;;5072093;28;20049;-48
2023/02/07 05:24:30;;;;;;;4.85;0.50;;;18.50;43.00;;;;;;5066352;28;20120;-45
2023/02/07 05:26:57;;;;;;;0.75;0.28;;;18.50;43.00;;;;;;5065871;28;20156;-47
2023/02/07 05:29:27;;;;;;;3.30;0.73;;;18.40;42.90;;;;;;5067102;28;20549;-48
2023/02/07 05:34:42;;;;;;;2.17;0.38;;;18.40;43.00;;;;;;5064670;28;20076;-48
2023/02/07 05:37:13;;;;;;;1.17;0.30;;;18.40;42.90;;;;;;5061235;28;20049;-47
2023/02/07 05:39:42;;;;;;;2.58;0.65;;;18.40;43.00;;;;;;5045733;28;20045;-44
2023/02/07 05:42:09;;;;;;;2.25;0.30;;;18.40;43.00;;;;;;5053689;28;20044;-44
2023/02/07 05:44:37;;;;;;;4.13;0.50;;;18.40;43.00;;;;;;5064468;28;20129;-49
2023/02/07 05:47:05;;;;;;;0.82;0.20;;;18.40;43.00;;;;;;5065361;28;20419;-47
2023/02/07 05:49:36;;;;;;;6.97;0.47;;;18.40;43.10;;;;;;5065564;28;20044;-47
2023/02/07 05:52:06;;;;;;;2.08;0.20;;;18.40;43.20;;;;;;5065175;28;20126;-48
2023/02/07 05:54:35;;;;;;;2.05;0.57;;;18.40;43.30;;;;;;5065489;28;20055;-47
2023/02/07 05:57:02;;;;;;;1.70;0.20;;;18.30;43.40;;;;;;5065520;28;20512;-45
2023/02/07 05:59:31;;;;;;;1.05;0.52;;;18.30;43.40;;;;;;5065460;28;20052;-47
2023/02/07 06:02:01;;;;;;;2.33;0.50;;;18.30;43.40;;;;;;5064692;28;20123;-53
2023/02/07 06:04:31;;;;;;;2.17;0.75;;;18.30;43.50;;;;;;5065280;28;20857;-46
2023/02/07 06:07:00;;;;;;;3.45;0.88;;;18.30;43.50;;;;;;5064778;28;20637;-45
2023/02/07 06:09:30;;;;;;;1.45;0.50;;;18.30;43.60;;;;;;5064258;28;20075;-48
2023/02/07 06:11:57;;;;;;;0.40;0.28;;;18.30;43.60;;;;;;5063249;28;20543;-45
2023/02/07 06:14:28;;;;;;;2.03;0.50;;;18.30;43.60;;;;;;5065039;28;20090;-46
2023/02/07 06:16:59;;;;;;;2.67;0.40;;;18.30;43.70;;;;;;5064203;28;20129;-47
2023/02/07 06:19:29;;;;;;;2.38;0.20;;;18.30;43.70;;;;;;5065999;28;20040;-44
2023/02/07 06:22:00;;;;;;;1.55;0.30;;;18.30;43.80;;;;;;5064707;28;20048;-46
2023/02/07 06:24:30;;;;;;;0.57;0.20;;;18.30;43.90;;;;;;5065078;28;20061;-49
2023/02/07 06:26:58;;;;;;;1.38;0.32;;;18.30;43.90;;;;;;5055315;28;20049;-47
2023/02/07 06:29:25;;;;;;;2.15;0.50;;;18.30;44.00;;;;;;5053553;28;20044;-46
2023/02/07 06:31:52;;;;;;;0.82;0.40;;;18.30;43.90;;;;;;5066440;28;20068;-49
2023/02/07 06:34:19;;;;;;;0.57;0.20;;;18.30;43.90;;;;;;5069325;28;20483;-46
2023/02/07 06:36:46;;;;;;;1.45;0.45;;;18.20;43.90;;;;;;5069107;28;20044;-49
2023/02/07 06:39:13;;;;;;;2.95;0.50;;;18.30;43.90;;;;;;5069009;28;20048;-47
2023/02/07 06:41:42;;;;;;;1.17;0.35;;;18.20;43.90;;;;;;5069170;28;20497;-47
2023/02/07 06:44:11;;;;;;;3.25;0.43;;;18.30;43.90;;;;;;5068727;28;20135;-45
2023/02/07 06:46:40;;;;;;;1.30;0.55;;;18.20;43.80;;;;;;5069003;28;20064;-45
2023/02/07 06:49:07;;;;;;;2.08;0.32;;;18.20;43.80;;;;;;5069365;28;20044;-47
2023/02/07 06:51:34;;;;;;;4.22;0.68;;;18.20;43.80;;;;;;5068668;28;20248;-46
2023/02/07 06:54:07;;;;;;;1.15;0.20;;;18.20;43.70;;;;;;5068724;28;20848;-47
2023/02/07 06:56:36;;;;;;;3.05;0.93;;;18.20;43.80;;;;;;5067524;28;20049;-48
2023/02/07 06:59:04;;;;;;;1.63;0.40;;;18.20;43.90;;;;;;5068728;28;20040;-44
2023/02/07 07:01:32;;;;;;;3.10;0.80;;;18.20;43.90;;;;;;5069639;28;20570;-46
2023/02/07 07:04:00;;;;;;;1.30;0.45;;;18.20;43.90;;;;;;5087627;28;20073;-45
2023/02/07 07:06:29;;;;;;;1.65;0.57;;;18.20;43.80;;;;;;5088975;28;20132;-45
2023/02/07 07:08:56;;;;;;;1.55;0.20;;;18.20;43.90;;;;;;5088703;28;20089;-47
2023/02/07 07:11:23;;;;;;;2.85;1.23;;;18.20;43.90;;;;;;5088983;28;20120;-45
2023/02/07 07:13:53;;;;;;;1.88;0.55;;;18.20;44.00;;;;;;5088397;28;20048;-45
2023/02/07 07:16:22;;;;;;;2.17;0.45;;;18.10;43.90;;;;;;5062447;28;20079;-46
2023/02/07 07:18:50;;;;;;;2.20;0.32;;;18.10;44.50;;;;;;5048646;28;20063;-44
2023/02/07 07:21:17;;;;;;;1.55;0.52;;;18.10;43.90;;;;;;5056247;28;20045;-47
2023/02/07 07:23:44;;;;;;;2.63;0.60;;;18.10;43.90;;;;;;5068170;28;20054;-46
2023/02/07 07:26:13;;;;;;;1.52;0.65;;;18.10;43.90;;;;;;5070276;28;20048;-50
2023/02/07 07:28:40;;;;;;;0.77;0.50;;;18.10;43.80;;;;;;5068013;28;20127;-47
2023/02/07 07:31:08;;;;;;;1.40;0.35;;;18.10;43.80;;;;;;5068508;28;20127;-47
2023/02/07 07:33:36;;;;;;;2.25;0.40;;;18.10;43.90;;;;;;5068206;28;20056;-48
2023/02/07 07:36:04;;;;;;;2.72;0.30;;;18.10;44.00;;;;;;5068217;28;20298;-49
2023/02/07 07:38:31;;;;;;;1.20;0.25;;;18.10;44.00;;;;;;5067247;28;20549;-54
2023/02/07 07:41:01;;;;;;;0.88;0.20;;;18.10;44.00;;;;;;5068796;28;20048;-46
2023/02/07 07:43:32;;;;;;;3.40;0.32;;;18.10;44.00;;;;;;5067218;28;20048;-47
2023/02/07 07:46:00;;;;;;;2.22;1.02;;;18.10;44.00;;;;;;5050334;28;20509;-46
2023/02/07 07:48:28;;;;;;;3.30;0.63;;;18.10;44.10;;;;;;5068066;28;20125;-48
2023/02/07 07:50:57;;;;;;;1.83;0.30;;;18.10;44.10;;;;;;5067777;28;20147;-46
2023/02/07 07:53:25;;;;;;;0.70;0.30;;;18.10;44.10;;;;;;5067437;28;20054;-48
2023/02/07 07:55:55;;;;;;;1.25;0.40;;;18.10;44.00;;;;;;5067905;28;20131;-46
2023/02/07 07:58:24;;;;;;;2.10;0.40;;;18.10;44.00;;;;;;5067560;28;20120;-43
2023/02/07 08:00:53;;;;;;;0.60;0.22;;;18.10;44.10;;;;;;5066070;28;20109;-46
2023/02/07 08:03:20;;;;;;;3.10;0.47;;;18.10;44.10;;;;;;5067122;28;20036;-45
2023/02/07 08:05:48;;;;;;;4.88;0.20;;;18.10;44.10;;;;;;5051553;28;20687;-47
2023/02/07 08:08:18;;;;;;;2.83;0.68;;;18.10;44.10;;;;;;5047311;28;20072;-47
2023/02/07 08:10:46;;;;;;;0.82;0.30;;;18.10;44.00;;;;;;5047330;28;20052;-46
2023/02/07 08:13:15;;;;;;;2.78;0.30;;;18.10;44.00;;;;;;5046878;28;20048;-48
2023/02/07 08:15:43;;;;;;;0.68;0.10;;;18.10;44.00;;;;;;5047309;28;20178;-50
2023/02/07 08:18:10;;;;;;;0.30;0.20;;;18.10;44.10;;;;;;5047297;28;20183;-47
2023/02/07 08:20:37;;;;;;;0.52;0.25;;;18.10;44.10;;;;;;5049685;28;20514;-48
2023/02/07 08:23:04;;;;;;;0.52;0.52;;;18.20;44.20;;;;;;5067084;28;20523;-47
2023/02/07 08:25:32;;;;;;;0.70;0.57;;;18.10;44.00;;;;;;5066865;28;20040;-52
2023/02/07 08:28:01;;;;;;;3.33;0.40;;;18.10;44.00;;;;;;5064245;28;20036;-51
2023/02/07 08:30:30;;;;;;;1.23;0.40;;;18.10;42.50;;;;;;5050685;28;20040;-52
2023/02/07 08:32:57;;;;;;;3.92;0.75;;;18.10;42.60;;;;;;5053830;28;20412;-49
2023/02/07 08:35:28;;;;;;;1.85;0.50;;;18.20;42.90;;;;;;5053431;28;20052;-47
2023/02/07 08:37:57;;;;;;;4.80;0.57;;;18.20;42.80;;;;;;5066060;28;20048;-47
2023/02/07 08:40:27;;;;;;;5.00;0.50;;;18.30;42.90;;;;;;5066182;28;20140;-51
2023/02/07 08:42:55;;;;;;;1.98;0.50;;;18.30;42.60;;;;;;5066011;28;20040;-50
2023/02/07 08:45:24;;;;;;;2.47;1.13;;;18.40;42.20;;;;;;5065954;28;20045;-48
2023/02/07 08:47:52;;;;;;;1.05;0.40;;;18.50;42.10;;;;;;5064318;28;20055;-45
2023/02/07 08:50:20;;;;;;;1.55;0.38;;;18.60;41.70;;;;;;5064006;28;20052;-50
2023/02/07 08:52:47;;;;;;;2.92;0.88;;;18.60;41.50;;;;;;5061285;28;20138;-45
2023/02/07 08:55:15;;;;;;;2.58;0.55;;;18.70;41.30;;;;;;5060620;28;20813;-47
2023/02/07 08:57:45;;;;;;;3.33;0.65;;;18.80;41.10;;;;;;5063394;28;20039;-45
2023/02/07 09:00:15;;;;;;;0.70;0.50;;;18.80;40.60;;;;;;5062945;28;20481;-45
2023/02/07 09:02:44;;;;;;;1.45;1.27;;;18.90;40.10;;;;;;5060291;28;20516;-45
2023/02/07 09:05:12;;;;;;;1.38;0.60;;;18.90;40.00;;;;;;5063675;28;20050;-48
2023/02/07 09:07:41;;;;;;;0.70;0.70;;;19.00;39.50;;;;;;5063348;28;20060;-49
2023/02/07 09:10:09;;;;;;;0.40;0.40;;;19.10;39.40;;;;;;5066772;28;20041;-47
2023/02/07 09:12:36;;;;;;;1.60;0.73;;;19.10;39.10;;;;;;5056065;28;20072;-50
2023/02/07 09:15:05;;;;;;;0.75;0.20;;;19.20;39.70;;;;;;5062594;28;20319;-49
2023/02/07 09:17:34;;;;;;;4.38;0.88;;;19.20;38.90;;;;;;5062964;28;20052;-51
2023/02/07 09:20:01;;;;;;;1.38;0.50;;;19.20;38.90;;;;;;5064936;28;20086;-50
2023/02/07 09:22:30;;;;;;;0.70;0.60;;;19.30;38.90;;;;;;5063870;28;20070;-51
2023/02/07 09:24:58;;;;;;;3.17;0.88;;;19.30;38.80;;;;;;5064653;28;20047;-49
2023/02/07 09:27:26;;;;;;;1.67;0.63;;;19.40;38.80;;;;;;5064442;28;20059;-53
2023/02/07 09:29:55;;;;;;;2.65;0.38;;;19.40;38.70;;;;;;5064848;28;20052;-50
2023/02/07 09:32:22;;;;;;;0.70;0.43;;;19.40;38.80;;;;;;5064796;28;20519;-44
2023/02/07 09:34:53;;;;;;;3.47;1.83;;;19.40;38.80;;;;;;5064842;28;20483;-49
2023/02/07 09:37:24;;;;;;;1.75;0.40;;;19.50;38.60;;;;;;5064850;28;20048;-45
2023/02/07 09:39:52;;;;;;;2.70;0.90;;;19.50;38.60;;;;;;5064667;28;20577;-49
2023/02/07 09:42:33;;;;;;;1.85;0.50;;;19.60;38.30;;;;;;5062941;28;20083;-46
2023/02/07 09:45:05;;;;;;;5.00;1.25;;;19.60;38.20;;;;;;5061822;28;20044;-49
2023/02/07 09:47:38;;;;;;;0.68;0.25;;;19.60;38.20;;;;;;5065294;28;20040;-47
2023/02/07 09:50:12;;;;;;;2.28;0.82;;;19.70;37.90;;;;;;5065048;28;20033;-44
2023/02/07 09:52:45;;;;;;;0.32;0.30;;;19.70;38.00;;;;;;5064582;28;20044;-48
2023/02/07 09:55:20;;;;;;;0.85;0.43;;;19.70;37.80;;;;;;5058157;28;20048;-49
2023/02/07 09:57:55;;;;;;;1.00;0.40;;;19.80;37.80;;;;;;5064801;28;20044;-46
2023/02/07 10:00:28;;;;;;;1.52;0.30;;;19.80;37.70;;;;;;5064441;28;20131;-44
2023/02/07 10:02:58;;;;;;;1.70;0.47;;;19.80;37.40;;;;;;5064698;28;20121;-44
2023/02/07 10:05:40;;;;;;;1.05;0.32;;;19.80;37.40;;;;;;5062756;28;20673;-47
2023/02/07 10:08:11;;;;;;;4.40;0.43;;;19.90;37.20;;;;;;5063818;28;20075;-50
2023/02/07 10:10:44;;;;;;;5.25;0.65;;;19.90;37.40;;;;;;5064482;28;20047;-53
2023/02/07 10:13:28;;;;;;;4.25;0.73;;;19.90;37.00;;;;;;5063926;28;20057;-47
2023/02/07 10:16:08;;;;;;;16.50;1.45;;;19.90;36.20;;;;;;5064118;28;20048;-54
2023/02/07 10:18:44;;;;;;;9.85;1.10;;;19.80;34.30;;;;;;5057815;28;20040;-46
2023/02/07 10:21:24;;;;;;;1.92;0.80;;;19.60;32.70;;;;;;5063592;28;20589;-48
2023/02/07 10:24:16;;;;;;;34.97;7.10;;;19.40;31.60;;;;;;5063986;28;20472;-48
2023/02/07 10:26:52;;;;;;;49.08;8.23;;;19.10;30.80;;;;;;5058408;28;20420;-49
2023/02/07 10:29:33;;;;;;;42.05;6.95;;;18.80;32.00;;;;;;5043334;28;20098;-48
2023/02/07 10:32:09;;;;;;;21.48;3.30;;;18.60;33.90;;;;;;5062270;28;20033;-45
2023/02/07 10:34:41;;;;;;;10.75;2.72;;;18.40;33.90;;;;;;5063856;28;20051;-43
2023/02/07 10:37:18;;;;;;;3.35;1.30;;;18.30;34.10;;;;;;5057892;28;20044;-42
2023/02/07 10:39:51;;;;;;;5.07;1.35;;;18.20;33.50;;;;;;5063791;28;20555;-44
2023/02/07 10:42:20;;;;;;;5.05;1.95;;;18.10;33.60;;;;;;5063627;28;20090;-45
2023/02/07 10:44:47;;;;;;;5.93;1.08;;;18.00;33.40;;;;;;5042503;28;20067;-48
2023/02/07 10:47:17;;;;;;;11.50;1.90;;;17.90;33.50;;;;;;5063442;28;20040;-53
2023/02/07 10:49:49;;;;;;;2.40;2.00;;;17.80;33.60;;;;;;5063744;28;20040;-47
2023/02/07 10:52:27;;;;;;;8.48;1.80;;;17.70;33.40;;;;;;5062907;28;20132;-44
2023/02/07 10:54:58;;;;;;;6.57;3.05;;;17.70;33.20;;;;;;5063448;28;20102;-42
2023/02/07 10:57:29;;;;;;;2.83;0.95;;;17.60;32.90;;;;;;5062406;28;20044;-43
2023/02/07 11:00:03;;;;;;;3.25;0.90;;;17.50;32.50;;;;;;5062385;28;20048;-45
2023/02/07 11:02:47;;;;;;;3.67;1.10;;;17.50;32.60;;;;;;5057923;28;20048;-43
2023/02/07 11:05:39;;;;;;;5.90;0.98;;;17.40;32.60;;;;;;5058069;28;20048;-42
2023/02/07 11:08:25;;;;;;;4.55;1.45;;;17.40;32.40;;;;;;5057097;28;20075;-43
2023/02/07 11:10:56;;;;;;;2.40;1.13;;;17.40;32.50;;;;;;5063277;28;20048;-46
2023/02/07 11:13:27;;;;;;;2.42;0.88;;;17.30;32.50;;;;;;5065436;28;20045;-45
2023/02/07 11:15:58;;;;;;;4.93;0.98;;;17.30;32.50;;;;;;5063638;28;20125;-42
2023/02/07 11:18:58;;;;;;;3.47;1.83;;;17.30;32.60;;;;;;5063471;28;20501;-43
2023/02/07 11:21:28;;;;;;;5.18;1.35;;;17.30;32.30;;;;;;5065009;28;20076;-42
2023/02/07 11:24:00;;;;;;;3.75;2.38;;;17.30;32.50;;;;;;5072141;28;20125;-43
2023/02/07 11:26:29;;;;;;;6.85;1.52;;;17.30;32.20;;;;;;5066253;28;20056;-43
2023/02/07 11:29:04;;;;;;;9.77;1.45;;;17.30;32.00;;;;;;5066373;28;20169;-43
2023/02/07 11:31:37;;;;;;;4.95;1.55;;;17.30;31.90;;;;;;5066109;28;20098;-42
2023/02/07 11:34:27;;;;;;;3.63;2.22;;;17.30;32.00;;;;;;5066782;28;20540;-42
2023/02/07 11:37:07;;;;;;;3.72;1.30;;;17.40;31.70;;;;;;5066217;28;20050;-44
2023/02/07 11:39:38;;;;;;;1.77;1.67;;;17.40;31.80;;;;;;5066475;28;20057;-51
2023/02/07 11:42:13;;;;;;;6.40;2.53;;;17.40;31.40;;;;;;5066408;28;20123;-47
2023/02/07 11:44:42;;;;;;;2.33;1.98;;;17.40;31.00;;;;;;5066322;28;20132;-47
2023/02/07 11:47:14;;;;;;;5.68;2.83;;;17.30;30.90;;;;;;5066771;28;20040;-42
2023/02/07 11:49:45;;;;;;;7.10;2.38;;;17.10;31.00;;;;;;5064318;28;20040;-42
2023/02/07 11:52:16;;;;;;;3.35;2.50;;;16.90;31.00;;;;;;5065832;28;20521;-44
2023/02/07 11:54:53;;;;;;;5.00;1.88;;;16.70;31.10;;;;;;5065802;28;20036;-43
2023/02/07 11:57:22;;;;;;;39.15;4.07;;;16.60;31.20;;;;;;5066106;28;20048;-43
2023/02/07 12:00:04;;;;;;;9.18;2.88;;;16.50;31.40;;;;;;5066263;28;20128;-43
2023/02/07 12:02:40;;;;;;;8.05;3.50;;;16.40;31.30;;;;;;5060462;28;20036;-43
2023/02/07 12:05:18;;;;;;;6.68;2.28;;;16.30;31.40;;;;;;5064682;28;20162;-48
2023/02/07 12:07:49;;;;;;;4.45;1.38;;;16.30;32.60;;;;;;5064295;28;20051;-47
2023/02/07 12:10:27;;;;;;;6.63;1.52;;;16.30;32.90;;;;;;5064900;28;20049;-48
2023/02/07 12:13:00;;;;;;;4.70;2.22;;;16.40;33.10;;;;;;5064825;28;20156;-48
2023/02/07 12:15:32;;;;;;;3.00;1.80;;;16.30;33.10;;;;;;5064979;28;20052;-47
2023/02/07 12:18:04;;;;;;;5.30;1.92;;;16.40;33.10;;;;;;5064747;28;20063;-48
2023/02/07 12:20:38;;;;;;;3.28;1.35;;;16.30;33.60;;;;;;5065192;28;20098;-53
2023/02/07 12:23:12;;;;;;;4.07;1.83;;;16.40;33.60;;;;;;5061843;28;20436;-45
2023/02/07 12:25:48;;;;;;;6.10;2.88;;;16.40;33.70;;;;;;5061232;28;20071;-46
2023/02/07 12:28:25;;;;;;;10.82;1.92;;;16.50;33.60;;;;;;5062223;28;20052;-51
2023/02/07 12:30:57;;;;;;;8.30;1.95;;;16.60;33.70;;;;;;5065624;28;20039;-49
2023/02/07 12:33:37;;;;;;;8.15;1.95;;;16.60;33.60;;;;;;5066184;28;20094;-52
2023/02/07 12:36:13;;;;;;;6.53;1.67;;;16.70;33.80;;;;;;5066104;28;20391;-52
2023/02/07 12:38:48;;;;;;;4.75;1.98;;;16.80;33.70;;;;;;5066129;28;20036;-53
2023/02/07 12:41:25;;;;;;;10.95;2.22;;;16.90;33.70;;;;;;5065994;28;20055;-51
2023/02/07 12:44:04;;;;;;;4.10;2.28;;;16.90;33.40;;;;;;5066131;28;20052;-56
2023/02/07 12:46:39;;;;;;;6.78;2.22;;;17.00;35.10;;;;;;5066069;28;20040;-53
2023/02/07 12:49:21;;;;;;;3.95;1.73;;;17.20;36.20;;;;;;5065575;28;20033;-55
2023/02/07 12:52:00;;;;;;;6.05;1.42;;;17.20;36.50;;;;;;5065878;28;20049;-54
2023/02/07 12:54:38;;;;;;;2.15;1.23;;;17.30;36.50;;;;;;5066141;28;20048;-55
2023/02/07 12:57:15;;;;;;;3.80;1.70;;;17.40;36.00;;;;;;5066020;28;20044;-56
2023/02/07 12:59:54;;;;;;;3.72;1.63;;;17.40;35.30;;;;;;5065884;28;20120;-55
2023/02/07 13:02:35;;;;;;;6.30;2.63;;;17.40;34.80;;;;;;5061778;28;20048;-58
2023/02/07 13:05:46;;;;;;;2.83;2.38;;;17.40;34.20;;;;;;5062780;28;20925;-58
2023/02/07 13:08:24;;;;;;;5.78;3.00;;;17.50;33.90;;;;;;5066087;28;20033;-61
2023/02/07 13:10:59;;;;;;;2.15;1.25;;;17.50;33.70;;;;;;5062052;28;20037;-59